createdAt,value
2023-03-05T00:04:12.648Z,100794.84
2023-03-05T00:09:18.296Z,100800.83
2023-03-05T00:14:24.015Z,100793.13
2023-03-05T00:19:29.398Z,100797.95
2023-03-05T00:24:36.796Z,100788.36
2023-03-05T00:29:42.195Z,100781.00
2023-03-05T00:34:49.356Z,100765.86
2023-03-05T00:39:54.916Z,100760.94
2023-03-05T00:45:00.431Z,100757.95
2023-03-05T00:50:07.430Z,100749.07
2023-03-05T00:55:12.922Z,100740.73
2023-03-05T01:00:19.195Z,100728.99
2023-03-05T01:05:24.740Z,100717.72
2023-03-05T01:10:31.058Z,100712.41
2023-03-05T01:15:36.523Z,100703.06
2023-03-05T01:20:42.100Z,100698.80
2023-03-05T01:25:56.922Z,100689.98
2023-03-05T01:31:02.659Z,100680.84
2023-03-05T01:36:15.610Z,100673.50
2023-03-05T01:41:21.902Z,100671.05
2023-03-05T01:46:34.383Z,100667.65
2023-03-05T01:51:45.453Z,100664.30
2023-03-05T01:56:52.983Z,100664.87
2023-03-05T02:02:00.552Z,100649.25
2023-03-05T02:07:06.977Z,100646.65
2023-03-05T02:12:14.144Z,100641.14
2023-03-05T02:17:20.837Z,100619.05
2023-03-05T02:22:26.805Z,100613.28
2023-03-05T02:27:35.675Z,100602.38
2023-03-05T02:32:41.258Z,100608.21
2023-03-05T02:37:47.262Z,100595.41
2023-03-05T02:42:52.945Z,100581.31
2023-03-05T02:47:59.399Z,100571.48
2023-03-05T02:53:05.068Z,100563.84
2023-03-05T02:58:10.518Z,100550.72
2023-03-05T03:03:16.673Z,100542.66
2023-03-05T03:08:22.132Z,100538.09
2023-03-05T03:13:27.653Z,100536.36
2023-03-05T03:18:33.169Z,100537.78
2023-03-05T03:23:38.621Z,100514.25
2023-03-05T03:28:44.764Z,100505.59
2023-03-05T03:33:50.215Z,100500.05
2023-03-05T03:38:55.660Z,100482.98
2023-03-05T03:44:02.763Z,100474.70
2023-03-05T03:49:09.271Z,100464.42
2023-03-05T03:54:16.407Z,100456.73
2023-03-05T03:59:24.699Z,100447.55
2023-03-05T04:04:30.620Z,100444.35
2023-03-05T04:09:36.104Z,100439.64
2023-03-05T04:14:41.484Z,100434.41
2023-03-05T04:19:47.067Z,100427.90
2023-03-05T04:24:52.556Z,100411.48
2023-03-05T04:29:57.949Z,100413.59
2023-03-05T04:35:03.418Z,100397.28
2023-03-05T04:40:10.325Z,100401.31
2023-03-05T04:45:17.429Z,100388.69
2023-03-05T04:50:23.119Z,100389.63
2023-03-05T04:55:29.037Z,100374.52
2023-03-05T05:00:35.802Z,100372.09
2023-03-05T05:05:41.492Z,100370.98
2023-03-05T05:10:47.001Z,100377.08
2023-03-05T05:15:52.541Z,100361.84
2023-03-05T05:20:58.013Z,100359.11
2023-03-05T05:26:05.703Z,100368.13
2023-03-05T05:31:13.899Z,100367.18
2023-03-05T05:36:20.270Z,100372.20
2023-03-05T05:41:25.873Z,100368.72
2023-03-05T05:46:31.508Z,100378.48
2023-03-05T05:51:37.158Z,100369.57
2023-03-05T05:56:43.369Z,100370.52
2023-03-05T06:01:49.084Z,100376.83
2023-03-05T06:06:54.648Z,100370.11
2023-03-05T06:12:00.198Z,100373.91
2023-03-05T06:17:06.089Z,100372.91
2023-03-05T06:22:11.464Z,100372.17
2023-03-05T06:27:16.952Z,100367.44
2023-03-05T06:32:22.719Z,100374.27
2023-03-05T06:37:28.526Z,100372.63
2023-03-05T06:42:35.519Z,100381.90
2023-03-05T06:47:41.044Z,100385.56
2023-03-05T06:52:46.424Z,100384.03
2023-03-05T06:57:52.177Z,100384.44
2023-03-05T07:02:57.636Z,100380.72
2023-03-05T07:08:04.310Z,100375.86
2023-03-05T07:13:11.048Z,100389.11
2023-03-05T07:18:16.631Z,100385.23
2023-03-05T07:23:22.101Z,100383.56
2023-03-05T07:28:27.861Z,100396.41
2023-03-05T07:33:35.320Z,100395.20
2023-03-05T07:38:40.915Z,100385.10
2023-03-05T07:43:47.728Z,100385.10
2023-03-05T07:48:54.766Z,100391.39
2023-03-05T07:54:03.271Z,100388.11
2023-03-05T07:59:11.325Z,100396.63
2023-03-05T08:04:17.043Z,100399.66
2023-03-05T08:09:22.512Z,100392.16
2023-03-05T08:14:28.199Z,100414.73
2023-03-05T08:19:35.432Z,100405.83
2023-03-05T08:24:40.813Z,100416.90
2023-03-05T08:29:46.312Z,100411.11
2023-03-05T08:34:52.278Z,100427.13
2023-03-05T08:39:57.807Z,100412.11
2023-03-05T08:45:03.294Z,100411.20
2023-03-05T08:50:09.694Z,100425.50
2023-03-05T08:55:15.282Z,100399.99
2023-03-05T09:00:21.877Z,100411.02
2023-03-05T09:05:27.426Z,100416.94
2023-03-05T09:10:32.951Z,100410.41
2023-03-05T09:15:38.999Z,100427.77
2023-03-05T09:20:44.386Z,100417.53
2023-03-05T09:25:50.138Z,100419.97
2023-03-05T09:30:55.840Z,100418.12
2023-03-05T09:36:02.671Z,100410.51
2023-03-05T09:41:11.094Z,100404.28
2023-03-05T09:46:22.555Z,100393.48
2023-03-05T09:51:31.050Z,100389.89
2023-03-05T09:56:39.718Z,100384.66
2023-03-05T10:01:46.064Z,100378.81
2023-03-05T10:06:57.499Z,100383.13
2023-03-05T10:12:08.494Z,100377.89
2023-03-05T10:17:35.702Z,100375.92
2023-03-05T10:22:59.284Z,100387.75
2023-03-05T10:28:20.573Z,100387.75
2023-03-05T10:33:48.681Z,100384.91
2023-03-05T10:39:19.928Z,100384.89
2023-03-05T10:44:49.541Z,100366.77
2023-03-05T10:49:57.768Z,100367.53
2023-03-05T10:55:04.658Z,100367.53
2023-03-05T11:00:15.905Z,100369.50
2023-03-05T11:05:45.409Z,100367.17
2023-03-05T11:11:12.178Z,100378.50
2023-03-05T11:16:23.937Z,100375.05
2023-03-05T11:21:30.750Z,100370.42
2023-03-05T11:26:36.542Z,100364.41
2023-03-05T11:31:42.137Z,100365.33
2023-03-05T11:36:57.010Z,100343.16
2023-03-05T11:42:14.604Z,100343.16
2023-03-05T11:47:28.903Z,100338.51
2023-03-05T11:52:37.409Z,100326.38
2023-03-05T11:57:48.332Z,100335.23
2023-03-05T12:02:56.221Z,100337.44
2023-03-05T12:08:05.388Z,100328.84
2023-03-05T12:13:22.814Z,100333.16
2023-03-05T12:18:52.879Z,100318.63
2023-03-05T12:24:02.656Z,100311.69
2023-03-05T12:29:11.524Z,100314.51
2023-03-05T12:34:40.561Z,100325.30
2023-03-05T12:39:51.105Z,100306.41
2023-03-05T12:45:16.412Z,100303.10
2023-03-05T12:50:33.896Z,100295.80
2023-03-05T12:55:48.589Z,100291.20
2023-03-05T13:01:28.892Z,100288.27
2023-03-05T13:06:36.951Z,100298.04
2023-03-05T13:11:45.816Z,100290.78
2023-03-05T13:16:52.173Z,100289.75
2023-03-05T13:22:03.688Z,100285.13
2023-03-05T13:27:30.077Z,100278.23
2023-03-05T13:32:35.948Z,100275.67
2023-03-05T13:37:41.500Z,100277.77
2023-03-05T13:42:47.225Z,100288.77
2023-03-05T13:48:04.364Z,100275.14
2023-03-05T13:53:24.045Z,100277.19
2023-03-05T13:58:54.928Z,100263.06
2023-03-05T14:04:19.887Z,100266.02
2023-03-05T14:09:31.110Z,100270.59
2023-03-05T14:14:39.515Z,100262.70
2023-03-05T14:19:45.053Z,100261.72
2023-03-05T14:24:54.018Z,100256.04
2023-03-05T14:29:59.590Z,100259.88
2023-03-05T14:35:07.124Z,100259.81
2023-03-05T14:40:19.737Z,100254.53
2023-03-05T14:45:29.305Z,100245.95
2023-03-05T14:50:38.410Z,100238.94
2023-03-05T14:55:44.880Z,100238.88
2023-03-05T15:00:51.903Z,100234.67
2023-03-05T15:05:59.698Z,100244.94
2023-03-05T15:11:06.905Z,100245.61
2023-03-05T15:16:15.703Z,100240.13
2023-03-05T15:21:21.239Z,100234.74
2023-03-05T15:26:26.770Z,100227.48
2023-03-05T15:31:33.934Z,100231.92
2023-03-05T15:36:39.797Z,100224.25
2023-03-05T15:41:45.320Z,100222.98
2023-03-05T15:46:50.846Z,100220.23
2023-03-05T15:51:57.065Z,100221.32
2023-03-05T15:57:02.610Z,100219.60
2023-03-05T16:02:08.609Z,100218.95
2023-03-05T16:07:16.524Z,100216.82
2023-03-05T16:12:28.070Z,100204.99
2023-03-05T16:17:34.516Z,100204.99
2023-03-05T16:22:40.093Z,100207.34
2023-03-05T16:27:45.906Z,100208.39
2023-03-05T16:32:53.608Z,100208.78
2023-03-05T16:37:58.673Z,100200.56
2023-03-05T16:43:04.162Z,100205.09
2023-03-05T16:48:09.747Z,100202.81
2023-03-05T16:53:15.594Z,100194.98
2023-03-05T16:58:21.279Z,100200.63
2023-03-05T17:03:27.802Z,100199.77
2023-03-05T17:08:33.324Z,100207.08
2023-03-05T17:13:39.050Z,100204.44
2023-03-05T17:18:44.591Z,100196.16
2023-03-05T17:23:50.861Z,100198.99
2023-03-05T17:28:56.410Z,100198.94
2023-03-05T17:34:01.871Z,100201.34
2023-03-05T17:39:08.883Z,100200.44
2023-03-05T17:44:14.522Z,100202.27
2023-03-05T17:49:20.154Z,100197.07
2023-03-05T17:54:25.986Z,100197.07
2023-03-05T17:59:31.597Z,100202.89
2023-03-05T18:04:37.184Z,100198.55
2023-03-05T18:09:47.042Z,100197.31
2023-03-05T18:14:54.863Z,100195.29
2023-03-05T18:20:03.533Z,100195.54
2023-03-05T18:25:08.823Z,100189.28
2023-03-05T18:30:14.881Z,100181.80
2023-03-05T18:35:20.483Z,100181.68
2023-03-05T18:40:28.521Z,100184.14
2023-03-05T18:45:34.457Z,100182.75
2023-03-05T18:50:40.632Z,100180.93
2023-03-05T18:55:46.306Z,100172.75
2023-03-05T19:00:52.030Z,100175.01
2023-03-05T19:05:57.826Z,100172.01
2023-03-05T19:11:03.980Z,100170.05
2023-03-05T19:16:16.112Z,100170.84
2023-03-05T19:21:21.760Z,100173.63
2023-03-05T19:26:27.276Z,100173.25
2023-03-05T19:31:34.570Z,100173.50
2023-03-05T19:36:40.118Z,100171.52
2023-03-05T19:41:45.633Z,100163.95
2023-03-05T19:46:51.101Z,100165.18
2023-03-05T19:51:56.830Z,100164.17
2023-03-05T19:57:02.611Z,100166.47
2023-03-05T20:02:08.568Z,100157.87
2023-03-05T20:07:16.653Z,100154.26
2023-03-05T20:12:23.655Z,100154.83
2023-03-05T20:17:29.357Z,100145.13
2023-03-05T20:22:34.893Z,100151.03
2023-03-05T20:27:41.556Z,100144.94
2023-03-05T20:32:47.651Z,100152.91
2023-03-05T20:37:57.400Z,100143.45
2023-03-05T20:43:03.063Z,100139.65
2023-03-05T20:48:10.519Z,100142.62
2023-03-05T20:53:16.866Z,100136.50
2023-03-05T20:58:22.351Z,100134.16
2023-03-05T21:03:29.151Z,100132.39
2023-03-05T21:08:35.157Z,100121.72
2023-03-05T21:13:40.754Z,100118.75
2023-03-05T21:18:46.756Z,100117.37
2023-03-05T21:23:52.354Z,100108.24
2023-03-05T21:28:57.998Z,100102.83
2023-03-05T21:34:03.513Z,100100.49
2023-03-05T21:39:10.078Z,100098.47
2023-03-05T21:44:17.314Z,100093.51
2023-03-05T21:49:22.856Z,100086.85
2023-03-05T21:54:29.141Z,100080.87
2023-03-05T21:59:35.117Z,100082.91
2023-03-05T22:04:40.843Z,100076.82
2023-03-05T22:09:47.216Z,100080.16
2023-03-05T22:14:52.630Z,100074.41
2023-03-05T22:19:58.036Z,100070.20
2023-03-05T22:25:04.863Z,100067.14
2023-03-05T22:30:12.099Z,100052.98
2023-03-05T22:35:18.081Z,100048.52
2023-03-05T22:40:25.213Z,100044.01
2023-03-05T22:45:31.052Z,100037.02
2023-03-05T22:50:37.408Z,100034.27
2023-03-05T22:55:43.730Z,100031.56
2023-03-05T23:00:50.987Z,100034.72
2023-03-05T23:05:57.069Z,100033.37
2023-03-05T23:11:04.752Z,100028.57
2023-03-05T23:16:10.447Z,100024.34
2023-03-05T23:21:15.865Z,100016.57
2023-03-05T23:26:21.314Z,100015.12
2023-03-05T23:31:26.888Z,100008.02
2023-03-05T23:36:32.486Z,100011.27
2023-03-05T23:41:37.957Z,100003.73
2023-03-05T23:46:44.597Z,99998.80
2023-03-05T23:51:50.126Z,99996.83
2023-03-05T23:56:55.658Z,99989.44
